Time;durP1;ratioP1;P1;durP2;ratioP2;P2;SDS_P1;SDS_P2;PMS_P1;PMS_P2;Temp;Humidity;BMP_temperature;BMP_pressure;BME280_temperature;BME280_humidity;BME280_pressure;Samples;Min_cycle;Max_cycle;Signal;HPM_P1;HPM_P2
2022/10/14 00:02:06;;;;;;;125.90;55.13;;;;;;;;;;5034487;28;20440;-74
2022/10/14 00:04:32;;;;;;;176.38;60.78;;;;;;;;;;5034164;28;20071;-74
2022/10/14 00:06:58;;;;;;;217.48;61.85;;;;;;;;;;5035101;28;20042;-75
2022/10/14 00:09:24;;;;;;;290.60;61.42;;;;;;;;;;5033602;28;20045;-75
2022/10/14 00:11:50;;;;;;;312.02;62.63;;;;;;;;;;5034717;28;20096;-75
2022/10/14 00:14:17;;;;;;;388.45;72.68;;;;;;;;;;5034706;28;20453;-75
2022/10/14 00:16:46;;;;;;;320.98;64.88;;;;;;;;;;5035286;28;20060;-74
2022/10/14 00:19:12;;;;;;;294.88;67.60;;;;;;;;;;5035459;28;20517;-74
2022/10/14 00:21:40;;;;;;;192.98;61.05;;;;;;;;;;5035326;28;20084;-76
2022/10/14 00:24:07;;;;;;;408.73;65.78;;;;;;;;;;5035666;28;20041;-75
2022/10/14 00:26:34;;;;;;;635.63;90.65;;;;;;;;;;5035122;28;20088;-75
2022/10/14 00:29:01;;;;;;;311.55;56.05;;;;;;;;;;5034238;28;20056;-76
2022/10/14 00:31:27;;;;;;;494.60;67.03;;;;;;;;;;5035381;28;20052;-75
2022/10/14 00:33:53;;;;;;;;;;;;;;;;;;5036040;28;20049;-75
2022/10/14 00:36:21;;;;;;;283.02;49.95;;;;;;;;;;5035968;28;19978;-75
2022/10/14 00:38:47;;;;;;;265.88;47.88;;;;;;;;;;5035329;28;20045;-76
2022/10/14 00:41:16;;;;;;;281.83;54.00;;;;;;;;;;5035325;28;20125;-76
2022/10/14 00:43:52;;;;;;;208.93;41.70;;;;;;;;;;5034822;28;20045;-75
2022/10/14 00:46:18;;;;;;;297.30;47.85;;;;;;;;;;5035380;28;20052;-75
2022/10/14 00:48:44;;;;;;;310.85;54.17;;;;;;;;;;5022389;28;20053;-75
2022/10/14 00:51:10;;;;;;;169.75;37.88;;;;;;;;;;5015795;28;20053;-76
2022/10/14 00:53:38;;;;;;;277.10;47.80;;;;;;;;;;5020892;28;20049;-75
2022/10/14 00:56:04;;;;;;;291.20;51.50;;;;;;;;;;5035399;28;20052;-76
2022/10/14 00:58:31;;;;;;;238.05;43.60;;;;;;;;;;5026025;28;20482;-75
2022/10/14 01:00:57;;;;;;;145.00;39.65;;;;;;;;;;5014602;28;20513;-76
2022/10/14 01:03:23;;;;;;;276.27;47.63;;;;;;;;;;5015493;28;20076;-76
2022/10/14 01:05:49;;;;;;;;;;;;;;;;;;5015281;28;20045;-76
2022/10/14 01:08:35;;;;;;;165.45;45.35;;;;;;;;;;5019908;28;19967;-75
2022/10/14 01:11:04;;;;;;;254.32;49.03;;;;;;;;;;5024881;28;20061;-76
2022/10/14 01:13:30;;;;;;;194.30;40.60;;;;;;;;;;5034532;28;20458;-75
2022/10/14 01:16:04;;;;;;;137.18;38.03;;;;;;;;;;5034655;28;20056;-75
2022/10/14 01:18:33;;;;;;;151.65;39.92;;;;;;;;;;5033647;28;20049;-73
2022/10/14 01:21:05;;;;;;;155.07;40.85;;;;;;;;;;5034606;28;20489;-75
2022/10/14 01:23:37;;;;;;;174.18;40.70;;;;;;;;;;5032886;28;20049;-74
2022/10/14 01:26:15;;;;;;;164.27;40.90;;;;;;;;;;5018790;28;20056;-73
2022/10/14 01:28:59;;;;;;;177.18;39.00;;;;;;;;;;5033705;28;20041;-73
2022/10/14 01:31:28;;;;;;;125.45;34.60;;;;;;;;;;5033389;28;20100;-73
2022/10/14 01:33:56;;;;;;;430.05;55.28;;;;;;;;;;5034140;28;20496;-73
2022/10/14 01:36:28;;;;;;;188.68;40.92;;;;;;;;;;5034272;28;20045;-73
2022/10/14 01:39:01;;;;;;;283.30;42.55;;;;;;;;;;5033436;28;20049;-73
2022/10/14 01:41:31;;;;;;;336.95;44.05;;;;;;;;;;5034463;28;20390;-75
2022/10/14 01:44:01;;;;;;;220.57;39.85;;;;;;;;;;5034425;28;20172;-74
2022/10/14 01:46:28;;;;;;;241.70;39.92;;;;;;;;;;5053559;28;20388;-74
2022/10/14 01:48:59;;;;;;;265.40;38.95;;;;;;;;;;5025571;28;20085;-74
2022/10/14 01:51:37;;;;;;;496.33;49.67;;;;;;;;;;5014592;28;20076;-74
2022/10/14 01:54:12;;;;;;;211.23;32.80;;;;;;;;;;5014196;28;20054;-74
2022/10/14 01:56:38;;;;;;;122.47;29.17;;;;;;;;;;5013635;28;20478;-73
2022/10/14 01:59:05;;;;;;;352.02;41.78;;;;;;;;;;5027864;28;20064;-74
2022/10/14 02:01:33;;;;;;;352.90;38.63;;;;;;;;;;5032649;28;20077;-73
2022/10/14 02:03:59;;;;;;;162.32;29.23;;;;;;;;;;5032486;28;20056;-74
2022/10/14 02:06:27;;;;;;;174.65;31.13;;;;;;;;;;5030726;28;20504;-72
2022/10/14 02:09:12;;;;;;;106.50;28.27;;;;;;;;;;5017128;28;20041;-72
2022/10/14 02:11:58;;;;;;;139.70;29.40;;;;;;;;;;5022223;28;20049;-73
2022/10/14 02:14:33;;;;;;;314.40;37.15;;;;;;;;;;5017278;28;20081;-74
2022/10/14 02:17:31;;;;;;;222.15;32.58;;;;;;;;;;5016368;28;20064;-74
2022/10/14 02:20:04;;;;;;;276.88;34.95;;;;;;;;;;4995935;28;20124;-74
2022/10/14 02:22:44;;;;;;;186.52;31.40;;;;;;;;;;5026454;28;20046;-74
2022/10/14 02:25:16;;;;;;;128.73;27.83;;;;;;;;;;5018155;28;20124;-73
2022/10/14 02:27:43;;;;;;;182.27;32.35;;;;;;;;;;5031174;28;20524;-74
2022/10/14 02:30:10;;;;;;;140.07;27.17;;;;;;;;;;5022570;28;20041;-73
2022/10/14 02:32:37;;;;;;;179.25;31.17;;;;;;;;;;5021537;28;20057;-73
2022/10/14 02:35:04;;;;;;;134.57;24.42;;;;;;;;;;5032546;28;20046;-75
2022/10/14 02:37:31;;;;;;;123.55;23.38;;;;;;;;;;5019887;28;20042;-74
2022/10/14 02:39:59;;;;;;;158.93;26.90;;;;;;;;;;5030802;28;20114;-74
2022/10/14 02:42:27;;;;;;;140.45;24.88;;;;;;;;;;5034191;28;20045;-76
2022/10/14 02:44:55;;;;;;;196.63;26.10;;;;;;;;;;5033089;28;20041;-75
2022/10/14 02:47:21;;;;;;;157.30;25.95;;;;;;;;;;5031075;28;20076;-73
2022/10/14 02:49:47;;;;;;;262.92;31.00;;;;;;;;;;5032699;28;20045;-75
2022/10/14 02:52:13;;;;;;;237.30;30.90;;;;;;;;;;5033580;28;20049;-75
2022/10/14 02:54:39;;;;;;;243.50;31.42;;;;;;;;;;5033031;28;20049;-75
2022/10/14 02:57:05;;;;;;;144.05;24.20;;;;;;;;;;5019550;28;20108;-76
2022/10/14 02:59:31;;;;;;;177.25;27.38;;;;;;;;;;5030312;28;20049;-75
2022/10/14 03:01:57;;;;;;;288.63;28.30;;;;;;;;;;5021279;28;20045;-76
2022/10/14 03:04:24;;;;;;;76.82;19.45;;;;;;;;;;5021080;28;20046;-75
2022/10/14 03:06:50;;;;;;;149.50;21.95;;;;;;;;;;5015179;28;20048;-77
2022/10/14 03:09:16;;;;;;;289.00;30.65;;;;;;;;;;5029645;28;20099;-77
2022/10/14 03:11:42;;;;;;;314.90;28.80;;;;;;;;;;5031030;28;20049;-75
2022/10/14 03:14:08;;;;;;;190.68;23.33;;;;;;;;;;5012670;28;20073;-76
2022/10/14 03:16:34;;;;;;;235.88;26.27;;;;;;;;;;5012682;28;20058;-77
2022/10/14 03:19:00;;;;;;;82.03;19.40;;;;;;;;;;5011944;28;20053;-75
2022/10/14 03:21:26;;;;;;;141.20;23.08;;;;;;;;;;5030206;28;20486;-76
2022/10/14 03:23:52;;;;;;;217.07;24.80;;;;;;;;;;5031496;28;20049;-75
2022/10/14 03:26:18;;;;;;;119.05;22.20;;;;;;;;;;5044000;28;20051;-76
2022/10/14 03:28:45;;;;;;;;;;;;;;;;;;5030695;28;20049;-72
2022/10/14 03:31:11;;;;;;;105.57;21.65;;;;;;;;;;5030401;28;19928;-78
2022/10/14 03:33:37;;;;;;;177.52;23.63;;;;;;;;;;5032482;28;20053;-76
2022/10/14 03:36:03;;;;;;;146.05;22.30;;;;;;;;;;5031871;28;20413;-78
2022/10/14 03:38:29;;;;;;;180.30;23.42;;;;;;;;;;5032320;28;20045;-78
2022/10/14 03:40:55;;;;;;;140.40;22.05;;;;;;;;;;5031227;28;20076;-78
2022/10/14 03:43:21;;;;;;;97.15;18.60;;;;;;;;;;5033265;28;20053;-78
2022/10/14 03:45:47;;;;;;;216.95;22.60;;;;;;;;;;5032493;28;20093;-73
2022/10/14 03:48:13;;;;;;;214.63;22.65;;;;;;;;;;5012164;28;20053;-79
2022/10/14 03:50:39;;;;;;;151.98;22.42;;;;;;;;;;5032613;28;20046;-80
2022/10/14 03:53:05;;;;;;;199.90;23.70;;;;;;;;;;5031988;28;20052;-78
2022/10/14 03:55:31;;;;;;;261.98;25.65;;;;;;;;;;5032671;28;20045;-79
2022/10/14 03:57:58;;;;;;;253.98;26.20;;;;;;;;;;5029540;28;20049;-74
2022/10/14 04:00:24;;;;;;;94.03;17.98;;;;;;;;;;5031048;28;20072;-78
2022/10/14 04:02:50;;;;;;;136.13;21.15;;;;;;;;;;5030738;28;20049;-71
2022/10/14 04:05:16;;;;;;;91.50;19.50;;;;;;;;;;5031001;28;20048;-78
2022/10/14 04:07:42;;;;;;;91.82;20.02;;;;;;;;;;5018109;28;20096;-75
2022/10/14 04:10:08;;;;;;;95.30;20.60;;;;;;;;;;5013306;28;20050;-80
2022/10/14 04:12:34;;;;;;;127.97;21.85;;;;;;;;;;5012019;28;20502;-78
2022/10/14 04:15:00;;;;;;;95.90;21.10;;;;;;;;;;5012393;28;20045;-77
2022/10/14 04:17:26;;;;;;;105.30;20.60;;;;;;;;;;5012276;28;20056;-79
2022/10/14 04:19:53;;;;;;;82.55;22.13;;;;;;;;;;5020396;28;20053;-72
2022/10/14 04:22:19;;;;;;;;;;;;;;;;;;5032411;28;20103;-80
2022/10/14 04:24:45;;;;;;;57.85;20.73;;;;;;;;;;5032033;28;19925;-78
2022/10/14 04:27:11;;;;;;;55.40;22.83;;;;;;;;;;5027845;28;20116;-78
2022/10/14 04:29:37;;;;;;;137.95;26.33;;;;;;;;;;5016419;28;20490;-80
2022/10/14 04:32:03;;;;;;;107.38;24.45;;;;;;;;;;5017015;28;20050;-78
2022/10/14 04:34:29;;;;;;;188.93;28.77;;;;;;;;;;5014163;28;20041;-77
2022/10/14 04:36:55;;;;;;;114.20;25.23;;;;;;;;;;5028234;28;20128;-71
2022/10/14 04:39:21;;;;;;;103.22;24.90;;;;;;;;;;5015613;28;20045;-78
2022/10/14 04:41:47;;;;;;;99.25;25.17;;;;;;;;;;5029934;28;20491;-76
2022/10/14 04:44:13;;;;;;;165.52;31.25;;;;;;;;;;5016042;28;20041;-82
2022/10/14 04:46:39;;;;;;;122.57;24.02;;;;;;;;;;5016741;28;20101;-79
2022/10/14 04:49:05;;;;;;;163.93;26.27;;;;;;;;;;5019519;28;20052;-85
2022/10/14 04:51:31;;;;;;;116.78;23.48;;;;;;;;;;5017193;28;20045;-80
2022/10/14 04:53:57;;;;;;;110.85;24.13;;;;;;;;;;5021084;28;20184;-72
2022/10/14 04:56:23;;;;;;;120.20;22.33;;;;;;;;;;5015260;28;20058;-79
2022/10/14 04:58:49;;;;;;;81.88;19.75;;;;;;;;;;5028459;28;20045;-81
2022/10/14 05:01:17;;;;;;;166.48;22.77;;;;;;;;;;5033373;28;20164;-82
2022/10/14 05:03:43;;;;;;;98.53;19.05;;;;;;;;;;5025187;28;20045;-81
2022/10/14 05:06:09;;;;;;;126.78;19.98;;;;;;;;;;5022555;28;20076;-80
2022/10/14 05:08:36;;;;;;;202.82;21.50;;;;;;;;;;5020939;28;20037;-73
2022/10/14 05:11:02;;;;;;;169.48;18.52;;;;;;;;;;5034703;28;20046;-77
2022/10/14 05:13:29;;;;;;;237.00;23.15;;;;;;;;;;5033461;28;20045;-71
2022/10/14 05:15:56;;;;;;;104.97;18.85;;;;;;;;;;5015285;28;20049;-79
2022/10/14 05:18:21;;;;;;;;;;;;;;;;;;5030759;28;20096;-80
2022/10/14 05:20:48;;;;;;;117.40;19.10;;;;;;;;;;5032188;28;19960;-77
2022/10/14 05:23:14;;;;;;;144.45;19.30;;;;;;;;;;5032813;28;20080;-81
2022/10/14 05:25:40;;;;;;;161.13;21.92;;;;;;;;;;5032183;28;20045;-78
2022/10/14 05:28:06;;;;;;;253.93;24.10;;;;;;;;;;5027169;28;20072;-79
2022/10/14 05:30:32;;;;;;;115.53;19.08;;;;;;;;;;5018250;28;20486;-80
2022/10/14 05:32:58;;;;;;;117.72;22.05;;;;;;;;;;5028974;28;20484;-79
2022/10/14 05:35:24;;;;;;;82.00;19.48;;;;;;;;;;5023239;28;20037;-81
2022/10/14 05:37:56;;;;;;;211.43;25.67;;;;;;;;;;5032919;28;20038;-77
2022/10/14 05:40:23;;;;;;;119.05;22.85;;;;;;;;;;5027869;28;20189;-83
2022/10/14 05:42:49;;;;;;;112.25;21.90;;;;;;;;;;5029981;28;20129;-81
2022/10/14 05:45:15;;;;;;;175.30;26.08;;;;;;;;;;5047382;28;20046;-83
2022/10/14 05:47:45;;;;;;;188.27;27.75;;;;;;;;;;5032509;28;20057;-84
2022/10/14 05:50:11;;;;;;;141.55;25.33;;;;;;;;;;5033790;28;20497;-81
2022/10/14 05:52:38;;;;;;;97.28;22.05;;;;;;;;;;5030338;28;20517;-82
2022/10/14 05:55:05;;;;;;;78.03;22.85;;;;;;;;;;5031292;28;20049;-69
2022/10/14 05:57:32;;;;;;;171.52;31.30;;;;;;;;;;5043830;28;20038;-89
2022/10/14 05:59:58;;;;;;;129.25;30.08;;;;;;;;;;5026782;28;20092;-88
2022/10/14 06:02:24;;;;;;;81.15;25.13;;;;;;;;;;5030496;28;20049;-88
2022/10/14 06:04:50;;;;;;;82.78;24.73;;;;;;;;;;5029739;28;20394;-84
2022/10/14 06:07:16;;;;;;;58.38;23.70;;;;;;;;;;5033793;28;20485;-83
2022/10/14 06:09:43;;;;;;;70.68;23.67;;;;;;;;;;5024825;28;20052;-83
2022/10/14 06:12:09;;;;;;;72.50;25.98;;;;;;;;;;5030183;28;20050;-82
2022/10/14 06:14:37;;;;;;;;;;;;;;;;;;5035858;28;20041;-82
2022/10/14 06:17:04;;;;;;;98.43;26.33;;;;;;;;;;5051970;28;19913;-84
2022/10/14 06:19:30;;;;;;;59.17;23.65;;;;;;;;;;5056207;28;20040;-77
2022/10/14 06:21:56;;;;;;;87.00;26.77;;;;;;;;;;5054623;28;20045;-81
2022/10/14 06:24:22;;;;;;;105.30;27.67;;;;;;;;;;5034903;28;20095;-80
2022/10/14 06:26:48;;;;;;;113.47;31.45;;;;;;;;;;5016058;28;20054;-80
2022/10/14 06:29:15;;;;;;;182.02;35.70;;;;;;;;;;5023979;28;20123;-81
2022/10/14 06:31:41;;;;;;;102.30;29.15;;;;;;;;;;5031553;28;20049;-78
2022/10/14 06:34:07;;;;;;;68.75;26.98;;;;;;;;;;5016196;28;20455;-78
2022/10/14 06:36:34;;;;;;;;;;;;;;;;;;5021123;28;20042;-78
2022/10/14 06:39:00;;;;;;;144.15;31.48;;;;;;;;;;5026988;28;19928;-81
2022/10/14 06:41:26;;;;;;;132.80;29.60;;;;;;;;;;5024358;28;20104;-75
2022/10/14 06:43:52;;;;;;;123.82;31.67;;;;;;;;;;5030440;28;20041;-74
2022/10/14 06:46:18;;;;;;;145.70;32.92;;;;;;;;;;5031528;28;20049;-77
2022/10/14 06:48:44;;;;;;;157.80;35.25;;;;;;;;;;5030961;28;20052;-76
2022/10/14 06:51:10;;;;;;;107.32;31.13;;;;;;;;;;5032608;28;20088;-73
2022/10/14 06:53:37;;;;;;;113.68;32.92;;;;;;;;;;5029511;28;20105;-76
2022/10/14 06:56:06;;;;;;;128.65;32.80;;;;;;;;;;5013233;28;20050;-73
2022/10/14 06:58:33;;;;;;;145.95;35.45;;;;;;;;;;4997310;28;20049;-81
2022/10/14 07:01:03;;;;;;;108.82;29.67;;;;;;;;;;5018388;28;20045;-75
2022/10/14 07:03:29;;;;;;;136.02;33.20;;;;;;;;;;5022243;28;20050;-76
2022/10/14 07:05:55;;;;;;;168.48;35.95;;;;;;;;;;5016691;28;20047;-76
2022/10/14 07:08:21;;;;;;;140.27;32.72;;;;;;;;;;5025652;28;20037;-77
2022/10/14 07:10:48;;;;;;;125.25;32.80;;;;;;;;;;5033186;28;20088;-77
2022/10/14 07:13:15;;;;;;;125.93;34.80;;;;;;;;;;5032685;28;20045;-75
2022/10/14 07:15:41;;;;;;;121.63;33.35;;;;;;;;;;5032639;28;20128;-76
2022/10/14 07:18:08;;;;;;;137.05;33.30;;;;;;;;;;5033084;28;20146;-76
2022/10/14 07:20:34;;;;;;;102.85;32.00;;;;;;;;;;5031321;28;20132;-77
2022/10/14 07:23:00;;;;;;;152.52;35.97;;;;;;;;;;5033071;28;20067;-75
2022/10/14 07:25:26;;;;;;;151.95;36.17;;;;;;;;;;5032419;28;20049;-78
2022/10/14 07:27:52;;;;;;;139.27;35.78;;;;;;;;;;5032856;28;20045;-80
2022/10/14 07:30:18;;;;;;;;;;;;;;;;;;5031928;28;20038;-78
2022/10/14 07:32:45;;;;;;;139.43;35.60;;;;;;;;;;5029931;28;20008;-77
2022/10/14 07:35:11;;;;;;;126.32;34.47;;;;;;;;;;5015340;28;20050;-72
2022/10/14 07:37:37;;;;;;;117.50;34.78;;;;;;;;;;5028053;28;20047;-78
2022/10/14 07:40:03;;;;;;;136.18;37.15;;;;;;;;;;5020581;28;20081;-77
2022/10/14 07:42:29;;;;;;;124.30;37.75;;;;;;;;;;5033033;28;20058;-76
2022/10/14 07:44:56;;;;;;;108.90;33.55;;;;;;;;;;5019221;28;20504;-77
2022/10/14 07:47:22;;;;;;;150.98;38.00;;;;;;;;;;5017790;28;20042;-69
2022/10/14 07:49:49;;;;;;;159.75;38.63;;;;;;;;;;5015523;28;20042;-72
2022/10/14 07:52:18;;;;;;;167.18;40.75;;;;;;;;;;5021784;28;20117;-72
2022/10/14 07:54:44;;;;;;;184.70;42.95;;;;;;;;;;5031547;28;20051;-72
2022/10/14 07:57:11;;;;;;;201.30;44.42;;;;;;;;;;5021732;28;20037;-74
2022/10/14 07:59:37;;;;;;;166.10;42.47;;;;;;;;;;5020046;28;20041;-71
2022/10/14 08:02:03;;;;;;;164.82;40.75;;;;;;;;;;5017213;28;20508;-72
2022/10/14 08:04:29;;;;;;;;;;;;;;;;;;5018814;28;20402;-75
2022/10/14 08:06:55;;;;;;;172.60;44.17;;;;;;;;;;5025252;28;19921;-75
2022/10/14 08:09:21;;;;;;;144.98;40.53;;;;;;;;;;5016567;28;20042;-74
2022/10/14 08:11:47;;;;;;;168.23;43.97;;;;;;;;;;5017738;28;20045;-75
2022/10/14 08:14:14;;;;;;;169.00;45.28;;;;;;;;;;5019015;28;20061;-74
2022/10/14 08:16:40;;;;;;;;;;;;;;;;;;5027591;28;20083;-75
2022/10/14 08:19:07;;;;;;;146.35;41.38;;;;;;;;;;5044844;28;19996;-75
2022/10/14 08:21:34;;;;;;;120.57;39.90;;;;;;;;;;5013082;28;20045;-75
2022/10/14 08:24:00;;;;;;;;;;;;;;;;;;5030657;28;20045;-75
2022/10/14 08:26:30;;;;;;;132.35;39.72;;;;;;;;;;5006290;28;19921;-70
2022/10/14 08:28:57;;;;;;;154.70;41.75;;;;;;;;;;5028396;28;20042;-75
2022/10/14 08:31:23;;;;;;;122.00;40.22;;;;;;;;;;5005087;28;20138;-75
2022/10/14 08:33:49;;;;;;;127.72;39.92;;;;;;;;;;5004416;28;20120;-74
2022/10/14 08:36:16;;;;;;;130.73;41.03;;;;;;;;;;5014353;28;20048;-73
2022/10/14 08:38:42;;;;;;;116.47;38.17;;;;;;;;;;5024491;28;20048;-82
2022/10/14 08:41:14;;;;;;;114.18;39.85;;;;;;;;;;4999991;28;20049;-72
2022/10/14 08:43:51;;;;;;;115.55;39.22;;;;;;;;;;5001113;28;20520;-73
2022/10/14 08:46:17;;;;;;;124.15;41.35;;;;;;;;;;4996993;28;20561;-73
2022/10/14 08:48:44;;;;;;;104.97;38.80;;;;;;;;;;5004263;28;20130;-71
2022/10/14 08:51:13;;;;;;;101.53;40.47;;;;;;;;;;5018303;28;20124;-75
2022/10/14 08:53:41;;;;;;;104.50;39.35;;;;;;;;;;5003945;28;20430;-75
2022/10/14 08:56:09;;;;;;;134.60;43.72;;;;;;;;;;5023497;28;20049;-73
2022/10/14 08:58:43;;;;;;;98.97;39.20;;;;;;;;;;5003114;28;20434;-76
2022/10/14 09:01:29;;;;;;;109.18;40.78;;;;;;;;;;5012580;28;20451;-75
2022/10/14 09:04:00;;;;;;;115.63;40.47;;;;;;;;;;4973544;28;20054;-75
2022/10/14 09:06:31;;;;;;;105.88;40.45;;;;;;;;;;4995606;28;20050;-76
2022/10/14 09:09:08;;;;;;;100.93;38.90;;;;;;;;;;5011377;28;20073;-75
2022/10/14 09:11:38;;;;;;;103.13;40.50;;;;;;;;;;5014570;28;20489;-75
2022/10/14 09:14:06;;;;;;;97.65;39.90;;;;;;;;;;5015582;28;20406;-73
2022/10/14 09:16:34;;;;;;;99.88;39.13;;;;;;;;;;5016852;28;20046;-72
2022/10/14 09:19:05;;;;;;;100.43;40.55;;;;;;;;;;5034463;28;20147;-74
2022/10/14 09:21:32;;;;;;;89.38;38.97;;;;;;;;;;5034525;28;20112;-75
2022/10/14 09:24:01;;;;;;;93.13;38.70;;;;;;;;;;5034931;28;20064;-75
2022/10/14 09:26:34;;;;;;;96.85;38.15;;;;;;;;;;5035088;28;20049;-73
2022/10/14 09:29:01;;;;;;;98.60;39.28;;;;;;;;;;5014928;28;20375;-73
2022/10/14 09:31:27;;;;;;;86.47;37.13;;;;;;;;;;5014872;28;20046;-74
2022/10/14 09:33:54;;;;;;;90.53;38.13;;;;;;;;;;5014559;28;20459;-71
2022/10/14 09:36:20;;;;;;;92.63;39.72;;;;;;;;;;5019204;28;20045;-75
2022/10/14 09:38:46;;;;;;;;;;;;;;;;;;5028465;28;20038;-76
2022/10/14 09:41:14;;;;;;;90.18;39.72;;;;;;;;;;5022288;28;19921;-75
2022/10/14 09:44:00;;;;;;;99.72;41.55;;;;;;;;;;5033043;28;20048;-71
2022/10/14 09:46:26;;;;;;;85.43;40.05;;;;;;;;;;5026976;28;20141;-74
2022/10/14 09:48:53;;;;;;;108.18;42.65;;;;;;;;;;5031681;28;20042;-73
2022/10/14 09:51:28;;;;;;;91.22;40.53;;;;;;;;;;5033991;28;20092;-73
2022/10/14 09:53:55;;;;;;;101.82;43.67;;;;;;;;;;5029857;28;20056;-72
2022/10/14 09:56:31;;;;;;;93.93;41.30;;;;;;;;;;5002105;28;20486;-73
2022/10/14 09:58:57;;;;;;;87.30;40.73;;;;;;;;;;5020255;28;20053;-74
2022/10/14 10:01:24;;;;;;;87.63;39.72;;;;;;;;;;5026287;28;20297;-74
2022/10/14 10:03:51;;;;;;;105.30;42.95;;;;;;;;;;5023776;28;20041;-74
2022/10/14 10:06:24;;;;;;;95.63;40.47;;;;;;;;;;5033013;28;20961;-74
2022/10/14 10:08:56;;;;;;;86.82;40.22;;;;;;;;;;5041409;28;20045;-79
2022/10/14 10:11:40;;;;;;;90.65;40.88;;;;;;;;;;5023021;28;20405;-78
2022/10/14 10:14:20;;;;;;;102.63;42.72;;;;;;;;;;5032286;28;20045;-77
2022/10/14 10:16:46;;;;;;;109.55;43.78;;;;;;;;;;5046376;28;20061;-79
2022/10/14 10:19:31;;;;;;;104.57;42.78;;;;;;;;;;5025042;28;20051;-79
2022/10/14 10:22:16;;;;;;;109.90;45.20;;;;;;;;;;5031304;28;20049;-80
2022/10/14 10:24:43;;;;;;;100.30;42.10;;;;;;;;;;5019404;28;20491;-71
2022/10/14 10:27:20;;;;;;;113.47;43.33;;;;;;;;;;5033543;28;20069;-72
2022/10/14 10:29:46;;;;;;;107.35;42.63;;;;;;;;;;5020127;28;20060;-73
2022/10/14 10:32:16;;;;;;;112.10;42.97;;;;;;;;;;5030981;28;20077;-74
2022/10/14 10:34:55;;;;;;;105.72;41.90;;;;;;;;;;5018647;28;20048;-72
2022/10/14 10:37:41;;;;;;;106.43;41.38;;;;;;;;;;5029021;28;20088;-78
2022/10/14 10:40:10;;;;;;;101.45;42.88;;;;;;;;;;5030879;28;20045;-76
2022/10/14 10:42:50;;;;;;;102.30;41.85;;;;;;;;;;5023850;28;20042;-77
2022/10/14 10:45:35;;;;;;;96.20;38.55;;;;;;;;;;5015044;28;20046;-75
2022/10/14 10:48:17;;;;;;;89.75;37.67;;;;;;;;;;5027008;28;20046;-74
2022/10/14 10:50:47;;;;;;;102.75;40.00;;;;;;;;;;5034017;28;20560;-75
2022/10/14 10:53:32;;;;;;;81.00;35.10;;;;;;;;;;5037807;28;20057;-69
2022/10/14 10:55:58;;;;;;;81.97;35.30;;;;;;;;;;5031885;28;20119;-74
2022/10/14 10:58:36;;;;;;;82.88;35.47;;;;;;;;;;5031347;28;20038;-77
2022/10/14 11:01:11;;;;;;;86.50;35.28;;;;;;;;;;5019271;28;20084;-76
2022/10/14 11:03:43;;;;;;;79.55;34.10;;;;;;;;;;5019968;28;20041;-78
2022/10/14 11:12:25;;;;;;;78.28;32.75;;;;;;;;;;5030467;28;20041;-72
2022/10/14 11:14:51;;;;;;;63.10;29.05;;;;;;;;;;5017579;28;20128;-77
2022/10/14 11:17:32;;;;;;;60.25;28.30;;;;;;;;;;5027680;28;20053;-82
2022/10/14 11:20:04;;;;;;;60.33;26.52;;;;;;;;;;5014021;28;20466;-74
2022/10/14 11:22:42;;;;;;;57.33;26.55;;;;;;;;;;5005784;28;20045;-76
2022/10/14 11:25:27;;;;;;;63.65;28.48;;;;;;;;;;5005204;28;20042;-78
2022/10/14 11:27:56;;;;;;;55.25;24.63;;;;;;;;;;5027431;28;20053;-74
2022/10/14 11:30:33;;;;;;;55.13;23.90;;;;;;;;;;5013235;28;20132;-74
2022/10/14 11:33:02;;;;;;;49.92;22.48;;;;;;;;;;5023453;28;20053;-74
2022/10/14 11:35:47;;;;;;;58.20;23.42;;;;;;;;;;5021168;28;20045;-74
2022/10/14 11:38:19;;;;;;;49.28;22.02;;;;;;;;;;4997795;28;20544;-72
2022/10/14 11:40:48;;;;;;;58.90;24.58;;;;;;;;;;5011448;28;20049;-72
2022/10/14 11:43:39;;;;;;;52.58;21.73;;;;;;;;;;5002936;28;20049;-72
2022/10/14 11:46:10;;;;;;;47.53;20.98;;;;;;;;;;5011517;28;20054;-72
2022/10/14 11:48:36;;;;;;;51.33;21.85;;;;;;;;;;5011895;28;20088;-72
2022/10/14 11:51:34;;;;;;;48.00;21.13;;;;;;;;;;5010263;28;20046;-72
2022/10/14 11:54:27;;;;;;;59.35;22.70;;;;;;;;;;4978312;28;20061;-72
2022/10/14 11:57:04;;;;;;;45.38;19.38;;;;;;;;;;5011324;28;20133;-73
2022/10/14 11:59:33;;;;;;;49.55;20.20;;;;;;;;;;5012458;28;20073;-72
2022/10/14 12:02:09;;;;;;;45.63;19.70;;;;;;;;;;5011793;28;20130;-72
2022/10/14 12:04:38;;;;;;;45.85;19.50;;;;;;;;;;5021842;28;20061;-71
2022/10/14 12:07:08;;;;;;;47.90;20.02;;;;;;;;;;5016857;28;20046;-71
2022/10/14 12:09:51;;;;;;;58.50;22.65;;;;;;;;;;5012401;28;20073;-71
2022/10/14 12:12:19;;;;;;;52.03;20.88;;;;;;;;;;5002679;28;20211;-71
2022/10/14 12:14:54;;;;;;;53.78;21.75;;;;;;;;;;5015938;28;20038;-71
2022/10/14 12:17:23;;;;;;;51.17;22.67;;;;;;;;;;5017493;28;20112;-72
2022/10/14 12:19:50;;;;;;;54.58;22.30;;;;;;;;;;5016907;28;20037;-70
2022/10/14 12:22:16;;;;;;;;;;;;;;;;;;5017948;28;20444;-72
2022/10/14 12:24:45;;;;;;;49.75;22.45;;;;;;;;;;5035603;28;19921;-71
2022/10/14 12:27:12;;;;;;;51.67;21.95;;;;;;;;;;5032999;28;20120;-70
2022/10/14 12:29:40;;;;;;;65.00;24.35;;;;;;;;;;5025407;28;20099;-71
2022/10/14 12:32:09;;;;;;;50.00;23.00;;;;;;;;;;5030464;28;20396;-71
2022/10/14 12:34:39;;;;;;;54.80;23.60;;;;;;;;;;5015785;28;20076;-71
2022/10/14 12:37:23;;;;;;;58.67;24.33;;;;;;;;;;5024578;28;20129;-72
2022/10/14 12:40:05;;;;;;;57.65;25.77;;;;;;;;;;5029379;28;20053;-72
2022/10/14 12:42:43;;;;;;;78.00;28.23;;;;;;;;;;5021469;28;20057;-72
2022/10/14 12:45:15;;;;;;;67.47;26.92;;;;;;;;;;5028103;28;20045;-73
2022/10/14 12:47:42;;;;;;;69.28;26.95;;;;;;;;;;5034659;28;20406;-74
2022/10/14 12:50:15;;;;;;;61.83;25.13;;;;;;;;;;5042402;28;20484;-73
2022/10/14 12:52:45;;;;;;;78.53;29.30;;;;;;;;;;5015689;28;20041;-73
2022/10/14 12:55:16;;;;;;;64.35;28.55;;;;;;;;;;5032416;28;20053;-72
2022/10/14 12:57:42;;;;;;;72.70;28.10;;;;;;;;;;5015836;28;20123;-73
2022/10/14 13:00:28;;;;;;;97.53;38.00;;;;;;;;;;5019597;28;20045;-74
2022/10/14 13:02:55;;;;;;;75.13;28.17;;;;;;;;;;5015911;28;20050;-74
2022/10/14 13:05:30;;;;;;;69.78;28.15;;;;;;;;;;5025709;28;20041;-72
2022/10/14 13:08:25;;;;;;;68.63;28.67;;;;;;;;;;5034312;28;20042;-71
2022/10/14 13:10:54;;;;;;;64.18;27.30;;;;;;;;;;5029339;28;20091;-72
2022/10/14 13:13:46;;;;;;;86.70;30.02;;;;;;;;;;5035411;28;20103;-77
2022/10/14 13:16:15;;;;;;;67.95;28.63;;;;;;;;;;5032006;28;20131;-74
2022/10/14 13:18:41;;;;;;;89.20;31.00;;;;;;;;;;5035217;28;20050;-74
2022/10/14 13:21:09;;;;;;;63.30;27.40;;;;;;;;;;5028893;28;20057;-72
2022/10/14 13:23:39;;;;;;;97.50;32.40;;;;;;;;;;5033938;28;20046;-72
2022/10/14 13:26:09;;;;;;;69.82;28.55;;;;;;;;;;5020453;28;20417;-73
2022/10/14 13:28:41;;;;;;;91.53;32.40;;;;;;;;;;5015318;28;20042;-73
2022/10/14 13:31:26;;;;;;;80.15;29.40;;;;;;;;;;5024649;28;20379;-73
2022/10/14 13:33:56;;;;;;;87.25;32.25;;;;;;;;;;5025101;28;20041;-71
2022/10/14 13:36:29;;;;;;;129.77;37.42;;;;;;;;;;5018097;28;20057;-72
2022/10/14 13:38:58;;;;;;;88.65;34.25;;;;;;;;;;5018710;28;20060;-71
2022/10/14 13:41:25;;;;;;;109.30;35.78;;;;;;;;;;5017397;28;20054;-71
2022/10/14 13:43:53;;;;;;;119.78;37.40;;;;;;;;;;5009141;28;20147;-72
2022/10/14 13:46:31;;;;;;;134.95;41.42;;;;;;;;;;5027173;28;20402;-72
2022/10/14 13:49:02;;;;;;;161.05;41.15;;;;;;;;;;5028574;28;20042;-72
2022/10/14 13:51:37;;;;;;;136.80;42.45;;;;;;;;;;5029904;28;20045;-72
2022/10/14 13:54:15;;;;;;;148.68;41.97;;;;;;;;;;5028550;28;20103;-72
2022/10/14 13:56:41;;;;;;;191.63;46.42;;;;;;;;;;5022704;28;20442;-72
2022/10/14 13:59:07;;;;;;;;;;;;;;;;;;5026245;28;20045;-74
2022/10/14 14:01:35;;;;;;;123.13;42.70;;;;;;;;;;5022959;28;20427;-71
2022/10/14 14:04:02;;;;;;;156.88;46.10;;;;;;;;;;5014640;28;20132;-75
2022/10/14 14:06:28;;;;;;;212.68;51.65;;;;;;;;;;5024975;28;20504;-75
2022/10/14 14:08:58;;;;;;;170.27;48.22;;;;;;;;;;5029234;28;20053;-74
2022/10/14 14:11:25;;;;;;;178.65;50.78;;;;;;;;;;5017987;28;20563;-74
2022/10/14 14:13:54;;;;;;;179.27;50.05;;;;;;;;;;5019791;28;20394;-74
2022/10/14 14:16:21;;;;;;;187.95;55.13;;;;;;;;;;5012564;28;20050;-73
2022/10/14 14:18:48;;;;;;;171.25;55.53;;;;;;;;;;5020023;28;20050;-73
2022/10/14 14:21:14;;;;;;;175.98;51.35;;;;;;;;;;5033135;28;20354;-73
2022/10/14 14:23:40;;;;;;;;;;;;;;;;;;5021679;28;20045;-73
2022/10/14 14:26:07;;;;;;;214.70;55.90;;;;;;;;;;5009057;28;19921;-73
2022/10/14 14:28:35;;;;;;;183.05;53.17;;;;;;;;;;5017981;28;20042;-72
2022/10/14 14:31:01;;;;;;;140.95;49.13;;;;;;;;;;5014160;28;20052;-75
2022/10/14 14:33:28;;;;;;;176.70;53.15;;;;;;;;;;5043361;28;20041;-72